sensor_id;sensor_type;location;lat;lon;timestamp;pressure;altitude;pressure_sealevel;temperature;humidity
51053;BME280;37093;37.716;-122.060;2022-08-03T00:01:44;99865.91;;;33.19;20.03
51053;BME280;37093;37.716;-122.060;2022-08-03T00:04:12;99868.73;;;33.25;19.90
51053;BME280;37093;37.716;-122.060;2022-08-03T00:06:40;99869.23;;;33.25;19.93
51053;BME280;37093;37.716;-122.060;2022-08-03T00:09:09;99867.15;;;33.26;19.79
51053;BME280;37093;37.716;-122.060;2022-08-03T00:11:37;99867.40;;;33.52;20.26
51053;BME280;37093;37.716;-122.060;2022-08-03T00:14:06;99865.47;;;33.40;20.59
51053;BME280;37093;37.716;-122.060;2022-08-03T00:16:36;99862.13;;;33.47;20.38
51053;BME280;37093;37.716;-122.060;2022-08-03T00:19:04;99855.86;;;32.97;20.74
51053;BME280;37093;37.716;-122.060;2022-08-03T00:21:32;99850.65;;;33.20;21.06
51053;BME280;37093;37.716;-122.060;2022-08-03T00:24:01;99851.07;;;33.17;20.73
51053;BME280;37093;37.716;-122.060;2022-08-03T00:26:29;99852.25;;;32.96;21.44
51053;BME280;37093;37.716;-122.060;2022-08-03T00:28:58;99847.59;;;32.53;21.36
51053;BME280;37093;37.716;-122.060;2022-08-03T00:31:26;99843.11;;;32.80;21.34
51053;BME280;37093;37.716;-122.060;2022-08-03T00:33:54;99839.80;;;32.34;21.78
51053;BME280;37093;37.716;-122.060;2022-08-03T00:36:23;99842.16;;;32.52;21.46
51053;BME280;37093;37.716;-122.060;2022-08-03T00:38:51;99843.53;;;32.37;21.90
51053;BME280;37093;37.716;-122.060;2022-08-03T00:41:20;99842.59;;;32.25;21.71
51053;BME280;37093;37.716;-122.060;2022-08-03T00:43:48;99837.15;;;32.27;22.12
51053;BME280;37093;37.716;-122.060;2022-08-03T00:46:16;99837.98;;;31.86;22.26
51053;BME280;37093;37.716;-122.060;2022-08-03T00:48:45;99840.18;;;32.11;22.15
51053;BME280;37093;37.716;-122.060;2022-08-03T00:51:14;99842.87;;;31.99;22.40
51053;BME280;37093;37.716;-122.060;2022-08-03T00:53:42;99847.90;;;31.42;22.58
51053;BME280;37093;37.716;-122.060;2022-08-03T00:56:13;99847.04;;;31.70;22.48
51053;BME280;37093;37.716;-122.060;2022-08-03T00:58:44;99852.10;;;31.29;22.56
51053;BME280;37093;37.716;-122.060;2022-08-03T01:01:13;99853.89;;;31.63;22.83
51053;BME280;37093;37.716;-122.060;2022-08-03T01:03:42;99854.88;;;31.77;22.68
51053;BME280;37093;37.716;-122.060;2022-08-03T01:06:16;99858.48;;;31.55;23.02
51053;BME280;37093;37.716;-122.060;2022-08-03T01:08:50;99860.88;;;31.26;23.07
51053;BME280;37093;37.716;-122.060;2022-08-03T01:11:29;99867.05;;;31.75;23.00
51053;BME280;37093;37.716;-122.060;2022-08-03T01:14:05;99871.47;;;31.43;23.53
51053;BME280;37093;37.716;-122.060;2022-08-03T01:16:42;99881.21;;;31.41;23.34
51053;BME280;37093;37.716;-122.060;2022-08-03T01:19:28;99883.32;;;31.24;23.40
51053;BME280;37093;37.716;-122.060;2022-08-03T01:22:08;99884.81;;;31.23;23.38
51053;BME280;37093;37.716;-122.060;2022-08-03T01:24:47;99888.34;;;31.01;23.45
51053;BME280;37093;37.716;-122.060;2022-08-03T01:27:22;99887.52;;;30.78;23.27
51053;BME280;37093;37.716;-122.060;2022-08-03T01:32:10;99883.75;;;30.91;24.29
51053;BME280;37093;37.716;-122.060;2022-08-03T01:34:42;99888.49;;;30.33;24.42
51053;BME280;37093;37.716;-122.060;2022-08-03T01:37:13;99889.60;;;30.55;24.26
51053;BME280;37093;37.716;-122.060;2022-08-03T01:39:44;99893.61;;;30.27;24.76
51053;BME280;37093;37.716;-122.060;2022-08-03T01:42:13;99896.97;;;30.08;24.77
51053;BME280;37093;37.716;-122.060;2022-08-03T01:44:44;99902.06;;;29.74;25.21
51053;BME280;37093;37.716;-122.060;2022-08-03T01:47:15;99900.23;;;30.08;25.50
51053;BME280;37093;37.716;-122.060;2022-08-03T01:49:46;99904.97;;;29.80;26.06
51053;BME280;37093;37.716;-122.060;2022-08-03T01:52:18;99906.92;;;29.45;25.84
51053;BME280;37093;37.716;-122.060;2022-08-03T01:54:51;99906.97;;;29.53;25.66
51053;BME280;37093;37.716;-122.060;2022-08-03T01:57:20;99905.22;;;29.57;26.01
51053;BME280;37093;37.716;-122.060;2022-08-03T01:59:50;99905.57;;;29.66;26.17
51053;BME280;37093;37.716;-122.060;2022-08-03T02:02:19;99900.05;;;29.22;26.95
51053;BME280;37093;37.716;-122.060;2022-08-03T02:04:49;99892.26;;;29.21;26.88
51053;BME280;37093;37.716;-122.060;2022-08-03T02:07:19;99888.93;;;29.28;27.04
51053;BME280;37093;37.716;-122.060;2022-08-03T02:09:50;99890.26;;;29.31;26.88
51053;BME280;37093;37.716;-122.060;2022-08-03T02:12:20;99894.22;;;29.22;26.73
51053;BME280;37093;37.716;-122.060;2022-08-03T02:14:50;99893.99;;;29.56;26.68
51053;BME280;37093;37.716;-122.060;2022-08-03T02:17:19;99896.90;;;29.62;26.86
51053;BME280;37093;37.716;-122.060;2022-08-03T02:19:48;99894.97;;;29.52;27.03
51053;BME280;37093;37.716;-122.060;2022-08-03T02:22:17;99890.03;;;29.44;27.03
51053;BME280;37093;37.716;-122.060;2022-08-03T02:24:45;99893.78;;;29.23;26.88
51053;BME280;37093;37.716;-122.060;2022-08-03T02:27:19;99903.14;;;29.01;26.90
51053;BME280;37093;37.716;-122.060;2022-08-03T02:29:54;99904.08;;;29.34;26.98
51053;BME280;37093;37.716;-122.060;2022-08-03T02:32:27;99903.16;;;28.97;27.03
51053;BME280;37093;37.716;-122.060;2022-08-03T02:34:59;99902.44;;;28.99;26.84
51053;BME280;37093;37.716;-122.060;2022-08-03T02:37:31;99905.91;;;28.87;26.70
51053;BME280;37093;37.716;-122.060;2022-08-03T02:40:02;99906.90;;;28.67;26.95
51053;BME280;37093;37.716;-122.060;2022-08-03T02:42:34;99907.66;;;28.73;27.00
51053;BME280;37093;37.716;-122.060;2022-08-03T02:45:06;99900.85;;;28.94;26.90
51053;BME280;37093;37.716;-122.060;2022-08-03T02:47:37;99903.79;;;28.67;26.99
51053;BME280;37093;37.716;-122.060;2022-08-03T02:50:08;99903.50;;;28.58;27.09
51053;BME280;37093;37.716;-122.060;2022-08-03T02:52:38;99905.36;;;28.58;27.33
51053;BME280;37093;37.716;-122.060;2022-08-03T02:55:09;99907.79;;;28.64;27.61
51053;BME280;37093;37.716;-122.060;2022-08-03T02:57:39;99915.70;;;28.24;27.57
51053;BME280;37093;37.716;-122.060;2022-08-03T03:00:09;99913.13;;;28.02;27.65
51053;BME280;37093;37.716;-122.060;2022-08-03T03:02:39;99906.41;;;28.21;27.88
51053;BME280;37093;37.716;-122.060;2022-08-03T03:05:09;99903.91;;;28.23;27.79
51053;BME280;37093;37.716;-122.060;2022-08-03T03:07:39;99903.07;;;28.25;27.92
51053;BME280;37093;37.716;-122.060;2022-08-03T03:10:09;99903.71;;;28.21;27.88
51053;BME280;37093;37.716;-122.060;2022-08-03T03:12:38;99903.17;;;28.27;28.08
51053;BME280;37093;37.716;-122.060;2022-08-03T03:15:08;99905.24;;;28.14;28.31
51053;BME280;37093;37.716;-122.060;2022-08-03T03:17:38;99908.23;;;27.98;28.23
51053;BME280;37093;37.716;-122.060;2022-08-03T03:20:09;99910.18;;;27.69;28.26
51053;BME280;37093;37.716;-122.060;2022-08-03T03:22:37;99910.33;;;27.90;28.57
51053;BME280;37093;37.716;-122.060;2022-08-03T03:25:08;99911.30;;;27.61;28.60
51053;BME280;37093;37.716;-122.060;2022-08-03T03:27:37;99914.95;;;27.80;28.52
51053;BME280;37093;37.716;-122.060;2022-08-03T03:30:07;99919.08;;;27.70;28.81
51053;BME280;37093;37.716;-122.060;2022-08-03T03:32:36;99923.26;;;27.63;28.85
51053;BME280;37093;37.716;-122.060;2022-08-03T03:35:06;99925.92;;;27.58;29.01
51053;BME280;37093;37.716;-122.060;2022-08-03T03:37:34;99925.97;;;27.56;29.18
51053;BME280;37093;37.716;-122.060;2022-08-03T03:40:03;99927.32;;;27.48;29.49
51053;BME280;37093;37.716;-122.060;2022-08-03T03:42:31;99926.63;;;27.69;29.55
51053;BME280;37093;37.716;-122.060;2022-08-03T03:45:05;99929.56;;;27.32;29.49
51053;BME280;37093;37.716;-122.060;2022-08-03T03:47:34;99926.63;;;27.59;29.82
51053;BME280;37093;37.716;-122.060;2022-08-03T03:50:03;99928.97;;;27.23;29.70
51053;BME280;37093;37.716;-122.060;2022-08-03T03:52:32;99918.19;;;27.73;29.79
51053;BME280;37093;37.716;-122.060;2022-08-03T03:55:01;99912.48;;;27.12;30.10
51053;BME280;37093;37.716;-122.060;2022-08-03T03:57:34;99908.42;;;27.12;29.92
51053;BME280;37093;37.716;-122.060;2022-08-03T04:00:04;99908.51;;;27.04;30.09
51053;BME280;37093;37.716;-122.060;2022-08-03T04:02:32;99910.90;;;27.51;29.94
51053;BME280;37093;37.716;-122.060;2022-08-03T04:05:01;99916.16;;;27.39;30.12
51053;BME280;37093;37.716;-122.060;2022-08-03T04:07:37;99922.48;;;27.05;30.41
51053;BME280;37093;37.716;-122.060;2022-08-03T04:10:16;99925.99;;;26.66;30.40
51053;BME280;37093;37.716;-122.060;2022-08-03T04:12:47;99936.04;;;26.93;30.78
51053;BME280;37093;37.716;-122.060;2022-08-03T04:15:19;99939.27;;;27.00;31.00
51053;BME280;37093;37.716;-122.060;2022-08-03T04:17:52;99938.52;;;26.80;31.00
51053;BME280;37093;37.716;-122.060;2022-08-03T04:20:25;99943.39;;;26.74;31.06
51053;BME280;37093;37.716;-122.060;2022-08-03T04:22:56;99945.12;;;26.96;31.04
51053;BME280;37093;37.716;-122.060;2022-08-03T04:25:27;99948.49;;;26.64;30.86
51053;BME280;37093;37.716;-122.060;2022-08-03T04:27:59;99953.23;;;26.86;31.23
51053;BME280;37093;37.716;-122.060;2022-08-03T04:30:30;99949.51;;;26.58;31.34
51053;BME280;37093;37.716;-122.060;2022-08-03T04:33:02;99950.62;;;26.78;31.23
51053;BME280;37093;37.716;-122.060;2022-08-03T04:35:32;99955.13;;;26.66;31.35
51053;BME280;37093;37.716;-122.060;2022-08-03T04:38:05;99959.26;;;26.63;31.53
51053;BME280;37093;37.716;-122.060;2022-08-03T04:40:36;99956.59;;;26.53;31.62
51053;BME280;37093;37.716;-122.060;2022-08-03T04:43:08;99960.98;;;26.44;31.44
51053;BME280;37093;37.716;-122.060;2022-08-03T04:45:37;99958.98;;;26.41;31.64
51053;BME280;37093;37.716;-122.060;2022-08-03T04:48:07;99960.40;;;26.41;31.65
51053;BME280;37093;37.716;-122.060;2022-08-03T04:50:35;99958.26;;;26.40;31.51
51053;BME280;37093;37.716;-122.060;2022-08-03T04:53:05;99954.56;;;26.40;31.40
51053;BME280;37093;37.716;-122.060;2022-08-03T04:55:35;99949.57;;;26.17;31.70
51053;BME280;37093;37.716;-122.060;2022-08-03T04:58:04;99945.95;;;26.29;31.55
51053;BME280;37093;37.716;-122.060;2022-08-03T05:00:32;99949.46;;;26.01;31.35
51053;BME280;37093;37.716;-122.060;2022-08-03T05:03:00;99948.46;;;26.21;31.14
51053;BME280;37093;37.716;-122.060;2022-08-03T05:05:28;99951.29;;;26.39;30.82
51053;BME280;37093;37.716;-122.060;2022-08-03T05:07:57;99948.98;;;25.92;30.86
51053;BME280;37093;37.716;-122.060;2022-08-03T05:10:25;99948.94;;;25.99;30.81
51053;BME280;37093;37.716;-122.060;2022-08-03T05:12:54;99949.41;;;25.88;31.19
51053;BME280;37093;37.716;-122.060;2022-08-03T05:15:22;99949.47;;;26.05;31.70
51053;BME280;37093;37.716;-122.060;2022-08-03T05:17:51;99948.33;;;26.00;32.33
51053;BME280;37093;37.716;-122.060;2022-08-03T05:20:20;99946.90;;;25.76;32.90
51053;BME280;37093;37.716;-122.060;2022-08-03T05:22:49;99945.46;;;25.90;33.05
51053;BME280;37093;37.716;-122.060;2022-08-03T05:25:17;99945.72;;;25.84;33.37
51053;BME280;37093;37.716;-122.060;2022-08-03T05:27:45;99948.37;;;25.81;33.77
51053;BME280;37093;37.716;-122.060;2022-08-03T05:30:14;99950.28;;;25.76;33.49
51053;BME280;37093;37.716;-122.060;2022-08-03T05:32:42;99952.05;;;25.76;33.33
51053;BME280;37093;37.716;-122.060;2022-08-03T05:35:10;99949.26;;;25.74;34.00
51053;BME280;37093;37.716;-122.060;2022-08-03T05:37:38;99948.00;;;25.72;33.91
51053;BME280;37093;37.716;-122.060;2022-08-03T05:40:08;99949.21;;;25.65;33.99
51053;BME280;37093;37.716;-122.060;2022-08-03T05:42:37;99953.09;;;25.90;34.19
51053;BME280;37093;37.716;-122.060;2022-08-03T05:45:06;99957.59;;;25.62;33.94
51053;BME280;37093;37.716;-122.060;2022-08-03T05:47:34;99959.20;;;25.35;34.07
51053;BME280;37093;37.716;-122.060;2022-08-03T05:50:04;99961.55;;;25.58;33.97
51053;BME280;37093;37.716;-122.060;2022-08-03T05:52:32;99961.74;;;25.55;34.31
51053;BME280;37093;37.716;-122.060;2022-08-03T05:55:00;99957.18;;;25.51;34.20
51053;BME280;37093;37.716;-122.060;2022-08-03T05:57:29;99952.80;;;25.69;34.07
51053;BME280;37093;37.716;-122.060;2022-08-03T05:59:57;99955.52;;;25.69;34.01
51053;BME280;37093;37.716;-122.060;2022-08-03T06:02:26;99959.34;;;25.38;33.78
51053;BME280;37093;37.716;-122.060;2022-08-03T06:04:54;99961.07;;;25.63;34.10
51053;BME280;37093;37.716;-122.060;2022-08-03T06:07:23;99967.40;;;25.58;33.89
51053;BME280;37093;37.716;-122.060;2022-08-03T06:09:51;99968.75;;;25.52;34.04
51053;BME280;37093;37.716;-122.060;2022-08-03T06:12:20;99971.83;;;25.43;33.97
51053;BME280;37093;37.716;-122.060;2022-08-03T06:14:48;99974.87;;;25.39;33.94
51053;BME280;37093;37.716;-122.060;2022-08-03T06:17:17;99969.41;;;25.34;33.80
51053;BME280;37093;37.716;-122.060;2022-08-03T06:19:46;99967.42;;;25.31;33.94
51053;BME280;37093;37.716;-122.060;2022-08-03T06:22:13;99972.56;;;25.25;33.88
51053;BME280;37093;37.716;-122.060;2022-08-03T06:24:42;99972.79;;;25.23;33.69
51053;BME280;37093;37.716;-122.060;2022-08-03T06:27:10;99970.73;;;25.19;34.02
51053;BME280;37093;37.716;-122.060;2022-08-03T06:29:39;99969.63;;;25.36;33.62
51053;BME280;37093;37.716;-122.060;2022-08-03T06:32:07;99972.17;;;25.01;34.58
51053;BME280;37093;37.716;-122.060;2022-08-03T06:34:35;99971.00;;;25.17;34.03
51053;BME280;37093;37.716;-122.060;2022-08-03T06:37:04;99975.55;;;24.91;34.71
51053;BME280;37093;37.716;-122.060;2022-08-03T06:39:32;99971.09;;;24.93;34.36
51053;BME280;37093;37.716;-122.060;2022-08-03T06:42:00;99971.06;;;24.94;34.31
51053;BME280;37093;37.716;-122.060;2022-08-03T06:44:29;99978.91;;;24.83;34.39
51053;BME280;37093;37.716;-122.060;2022-08-03T06:46:57;99979.60;;;24.82;34.35
51053;BME280;37093;37.716;-122.060;2022-08-03T06:49:25;99979.99;;;25.18;34.21
51053;BME280;37093;37.716;-122.060;2022-08-03T06:51:54;99982.30;;;24.90;34.30
51053;BME280;37093;37.716;-122.060;2022-08-03T06:54:22;99979.39;;;24.56;34.75
51053;BME280;37093;37.716;-122.060;2022-08-03T06:56:51;99977.07;;;24.83;34.66
51053;BME280;37093;37.716;-122.060;2022-08-03T06:59:19;99978.58;;;24.73;35.06
51053;BME280;37093;37.716;-122.060;2022-08-03T07:01:11;99978.51;;;23.85;34.99
51053;BME280;37093;37.716;-122.060;2022-08-03T07:03:40;99981.27;;;23.38;33.84
51053;BME280;37093;37.716;-122.060;2022-08-03T07:06:08;99983.29;;;25.37;32.26
51053;BME280;37093;37.716;-122.060;2022-08-03T07:08:36;99982.82;;;25.75;32.75
51053;BME280;37093;37.716;-122.060;2022-08-03T07:11:05;99983.57;;;25.12;33.43
51053;BME280;37093;37.716;-122.060;2022-08-03T07:13:33;99984.87;;;24.93;33.91
51053;BME280;37093;37.716;-122.060;2022-08-03T07:16:02;99982.67;;;24.67;34.59
51053;BME280;37093;37.716;-122.060;2022-08-03T07:18:30;99984.79;;;24.44;34.96
51053;BME280;37093;37.716;-122.060;2022-08-03T07:20:59;99985.36;;;24.76;35.13
51053;BME280;37093;37.716;-122.060;2022-08-03T07:23:28;99982.52;;;24.16;35.17
51053;BME280;37093;37.716;-122.060;2022-08-03T07:25:57;99981.33;;;24.53;35.17
51053;BME280;37093;37.716;-122.060;2022-08-03T07:28:25;99983.77;;;24.45;35.57
51053;BME280;37093;37.716;-122.060;2022-08-03T07:30:54;99984.22;;;24.40;35.54
51053;BME280;37093;37.716;-122.060;2022-08-03T07:33:22;99985.42;;;24.33;35.72
51053;BME280;37093;37.716;-122.060;2022-08-03T07:35:50;99983.11;;;24.09;35.91
51053;BME280;37093;37.716;-122.060;2022-08-03T07:38:19;99976.88;;;24.30;35.88
51053;BME280;37093;37.716;-122.060;2022-08-03T07:40:47;99969.90;;;24.26;35.91
51053;BME280;37093;37.716;-122.060;2022-08-03T07:43:15;99963.96;;;24.47;35.98
51053;BME280;37093;37.716;-122.060;2022-08-03T07:45:44;99961.29;;;24.16;35.69
51053;BME280;37093;37.716;-122.060;2022-08-03T07:48:12;99962.11;;;24.10;36.23
51053;BME280;37093;37.716;-122.060;2022-08-03T07:50:41;99956.91;;;24.06;36.03
51053;BME280;37093;37.716;-122.060;2022-08-03T07:53:09;99953.24;;;24.03;36.29
51053;BME280;37093;37.716;-122.060;2022-08-03T07:55:37;99950.23;;;24.00;36.41
51053;BME280;37093;37.716;-122.060;2022-08-03T07:58:08;99949.05;;;24.24;36.29
51053;BME280;37093;37.716;-122.060;2022-08-03T08:00:37;99945.00;;;23.94;36.29
51053;BME280;37093;37.716;-122.060;2022-08-03T08:03:05;99946.99;;;23.91;36.33
51053;BME280;37093;37.716;-122.060;2022-08-03T08:05:33;99952.93;;;23.85;36.28
51053;BME280;37093;37.716;-122.060;2022-08-03T08:08:02;99956.40;;;23.83;36.31
51053;BME280;37093;37.716;-122.060;2022-08-03T08:10:31;99960.37;;;24.06;36.22
51053;BME280;37093;37.716;-122.060;2022-08-03T08:12:59;99956.85;;;24.04;36.12
51053;BME280;37093;37.716;-122.060;2022-08-03T08:15:29;99956.08;;;24.02;36.52
51053;BME280;37093;37.716;-122.060;2022-08-03T08:18:00;99959.23;;;23.73;36.38
51053;BME280;37093;37.716;-122.060;2022-08-03T08:20:31;99959.10;;;23.69;36.41
51053;BME280;37093;37.716;-122.060;2022-08-03T08:23:02;99952.68;;;23.92;36.71
51053;BME280;37093;37.716;-122.060;2022-08-03T08:25:31;99949.31;;;23.63;37.14
51053;BME280;37093;37.716;-122.060;2022-08-03T08:28:01;99944.15;;;23.59;37.70
51053;BME280;37093;37.716;-122.060;2022-08-03T08:30:31;99937.56;;;23.54;37.60
51053;BME280;37093;37.716;-122.060;2022-08-03T08:32:59;99939.62;;;23.75;37.66
51053;BME280;37093;37.716;-122.060;2022-08-03T08:35:29;99941.29;;;23.44;37.72
51053;BME280;37093;37.716;-122.060;2022-08-03T08:37:59;99938.37;;;23.43;38.30
51053;BME280;37093;37.716;-122.060;2022-08-03T08:40:28;99939.90;;;23.64;38.16
51053;BME280;37093;37.716;-122.060;2022-08-03T08:42:57;99936.65;;;23.66;38.10
51053;BME280;37093;37.716;-122.060;2022-08-03T08:45:26;99933.09;;;23.86;37.83
51053;BME280;37093;37.716;-122.060;2022-08-03T08:47:57;99927.44;;;23.88;37.95
51053;BME280;37093;37.716;-122.060;2022-08-03T08:50:28;99927.70;;;23.60;37.82
51053;BME280;37093;37.716;-122.060;2022-08-03T08:53:00;99923.72;;;23.83;38.02
51053;BME280;37093;37.716;-122.060;2022-08-03T08:55:30;99919.94;;;23.78;37.62
51053;BME280;37093;37.716;-122.060;2022-08-03T08:58:04;99920.76;;;23.53;38.05
51053;BME280;37093;37.716;-122.060;2022-08-03T09:00:33;99919.96;;;23.45;37.77
51053;BME280;37093;37.716;-122.060;2022-08-03T09:03:01;99920.47;;;23.66;37.53
51053;BME280;37093;37.716;-122.060;2022-08-03T09:05:30;99920.33;;;23.41;38.59
51053;BME280;37093;37.716;-122.060;2022-08-03T09:07:58;99921.36;;;23.45;38.13
51053;BME280;37093;37.716;-122.060;2022-08-03T09:10:28;99924.54;;;23.43;37.82
51053;BME280;37093;37.716;-122.060;2022-08-03T09:12:56;99928.09;;;23.20;37.79
51053;BME280;37093;37.716;-122.060;2022-08-03T09:15:26;99928.70;;;23.41;37.41
51053;BME280;37093;37.716;-122.060;2022-08-03T09:17:56;99928.51;;;23.60;37.27
51053;BME280;37093;37.716;-122.060;2022-08-03T09:20:26;99928.14;;;23.35;36.62
51053;BME280;37093;37.716;-122.060;2022-08-03T09:22:57;99928.89;;;23.57;37.06
51053;BME280;37093;37.716;-122.060;2022-08-03T09:29:53;99926.66;;;23.28;38.70
51053;BME280;37093;37.716;-122.060;2022-08-03T09:32:23;99926.79;;;22.80;37.49
51053;BME280;37093;37.716;-122.060;2022-08-03T09:34:52;99926.36;;;23.34;37.08
51053;BME280;37093;37.716;-122.060;2022-08-03T09:37:31;99925.50;;;23.18;37.62
51053;BME280;37093;37.716;-122.060;2022-08-03T09:39:59;99925.45;;;22.80;38.73
51053;BME280;37093;37.716;-122.060;2022-08-03T09:42:28;99926.65;;;22.57;38.38
51053;BME280;37093;37.716;-122.060;2022-08-03T09:44:57;99926.06;;;22.55;38.40
51053;BME280;37093;37.716;-122.060;2022-08-03T09:49:41;99917.12;;;23.23;38.74
51053;BME280;37093;37.716;-122.060;2022-08-03T09:52:14;99919.10;;;22.49;38.86
51053;BME280;37093;37.716;-122.060;2022-08-03T09:54:43;99915.12;;;22.75;38.64
51053;BME280;37093;37.716;-122.060;2022-08-03T09:58:23;99919.09;;;22.70;38.79
51053;BME280;37093;37.716;-122.060;2022-08-03T10:03:04;99917.37;;;22.94;38.76
51053;BME280;37093;37.716;-122.060;2022-08-03T10:05:32;99916.25;;;22.92;38.58
51053;BME280;37093;37.716;-122.060;2022-08-03T10:08:09;99916.97;;;22.53;38.49
51053;BME280;37093;37.716;-122.060;2022-08-03T10:10:42;99914.32;;;22.51;38.57
51053;BME280;37093;37.716;-122.060;2022-08-03T10:13:12;99907.72;;;22.55;38.24
51053;BME280;37093;37.716;-122.060;2022-08-03T10:15:41;99906.62;;;22.55;38.15
51053;BME280;37093;37.716;-122.060;2022-08-03T10:18:10;99902.90;;;22.62;38.19
51053;BME280;37093;37.716;-122.060;2022-08-03T10:20:42;99902.06;;;22.60;37.91
51053;BME280;37093;37.716;-122.060;2022-08-03T10:23:14;99907.49;;;22.66;38.10
51053;BME280;37093;37.716;-122.060;2022-08-03T10:25:46;99908.89;;;22.90;38.06
51053;BME280;37093;37.716;-122.060;2022-08-03T10:28:18;99908.49;;;22.66;37.92
51053;BME280;37093;37.716;-122.060;2022-08-03T10:30:50;99905.71;;;22.63;38.02
51053;BME280;37093;37.716;-122.060;2022-08-03T10:33:23;99901.75;;;22.61;38.01
51053;BME280;37093;37.716;-122.060;2022-08-03T10:35:55;99896.99;;;22.57;37.94
51053;BME280;37093;37.716;-122.060;2022-08-03T10:38:31;99900.19;;;22.60;37.77
51053;BME280;37093;37.716;-122.060;2022-08-03T10:41:01;99901.56;;;22.55;37.76
51053;BME280;37093;37.716;-122.060;2022-08-03T10:43:35;99899.87;;;22.59;38.03
51053;BME280;37093;37.716;-122.060;2022-08-03T10:46:09;99897.74;;;22.56;38.19
51053;BME280;37093;37.716;-122.060;2022-08-03T10:48:37;99894.02;;;22.58;37.92
51053;BME280;37093;37.716;-122.060;2022-08-03T10:51:06;99895.60;;;22.54;37.73
51053;BME280;37093;37.716;-122.060;2022-08-03T10:53:36;99894.25;;;22.53;37.94
51053;BME280;37093;37.716;-122.060;2022-08-03T10:56:05;99894.31;;;22.48;38.02
51053;BME280;37093;37.716;-122.060;2022-08-03T10:58:47;99897.24;;;22.76;38.04
51053;BME280;37093;37.716;-122.060;2022-08-03T11:01:17;99895.68;;;22.74;37.99
51053;BME280;37093;37.716;-122.060;2022-08-03T11:06:15;99891.46;;;23.29;38.01
51053;BME280;37093;37.716;-122.060;2022-08-03T11:08:44;99893.12;;;22.55;38.04
51053;BME280;37093;37.716;-122.060;2022-08-03T11:13:23;99890.61;;;22.84;38.42
51053;BME280;37093;37.716;-122.060;2022-08-03T11:15:54;99885.94;;;22.52;38.04
51053;BME280;37093;37.716;-122.060;2022-08-03T11:18:23;99880.49;;;22.50;38.41
51053;BME280;37093;37.716;-122.060;2022-08-03T11:20:54;99878.84;;;22.36;38.64
51053;BME280;37093;37.716;-122.060;2022-08-03T11:23:41;99873.30;;;22.27;38.90
51053;BME280;37093;37.716;-122.060;2022-08-03T11:26:12;99873.25;;;22.47;38.41
51053;BME280;37093;37.716;-122.060;2022-08-03T11:28:42;99870.76;;;22.69;38.95
51053;BME280;37093;37.716;-122.060;2022-08-03T11:33:30;99856.31;;;22.41;39.37
51053;BME280;37093;37.716;-122.060;2022-08-03T11:35:59;99858.94;;;22.13;38.85
51053;BME280;37093;37.716;-122.060;2022-08-03T11:38:29;99858.88;;;22.21;38.59
51053;BME280;37093;37.716;-122.060;2022-08-03T11:40:57;99856.40;;;22.14;38.79
51053;BME280;37093;37.716;-122.060;2022-08-03T11:45:37;99856.97;;;22.64;39.10
51053;BME280;37093;37.716;-122.060;2022-08-03T11:49:11;99859.57;;;22.13;38.68
51053;BME280;37093;37.716;-122.060;2022-08-03T11:51:39;99859.78;;;22.64;38.56
51053;BME280;37093;37.716;-122.060;2022-08-03T11:54:08;99867.06;;;22.65;38.40
51053;BME280;37093;37.716;-122.060;2022-08-03T12:01:04;99865.90;;;22.46;39.45
51053;BME280;37093;37.716;-122.060;2022-08-03T12:03:34;99866.21;;;22.08;38.87
51053;BME280;37093;37.716;-122.060;2022-08-03T12:06:02;99867.45;;;22.17;38.41
51053;BME280;37093;37.716;-122.060;2022-08-03T12:08:36;99867.46;;;22.61;38.63
51053;BME280;37093;37.716;-122.060;2022-08-03T12:11:06;99866.33;;;22.53;38.91
51053;BME280;37093;37.716;-122.060;2022-08-03T12:15:51;99862.93;;;22.73;38.95
51053;BME280;37093;37.716;-122.060;2022-08-03T12:18:22;99862.02;;;22.26;38.61
51053;BME280;37093;37.716;-122.060;2022-08-03T12:20:52;99855.19;;;22.02;38.79
51053;BME280;37093;37.716;-122.060;2022-08-03T12:23:28;99854.45;;;22.32;38.74
51053;BME280;37093;37.716;-122.060;2022-08-03T12:26:01;99854.76;;;22.02;38.77
51053;BME280;37093;37.716;-122.060;2022-08-03T12:28:32;99856.75;;;22.47;39.00
51053;BME280;37093;37.716;-122.060;2022-08-03T12:31:03;99859.05;;;22.42;39.11
51053;BME280;37093;37.716;-122.060;2022-08-03T12:33:53;99861.46;;;22.41;38.88
51053;BME280;37093;37.716;-122.060;2022-08-03T12:36:21;99862.27;;;22.37;39.06
51053;BME280;37093;37.716;-122.060;2022-08-03T12:38:55;99865.09;;;21.87;39.32
51053;BME280;37093;37.716;-122.060;2022-08-03T12:41:30;99870.64;;;22.31;39.04
51053;BME280;37093;37.716;-122.060;2022-08-03T12:43:59;99877.33;;;22.15;39.17
51053;BME280;37093;37.716;-122.060;2022-08-03T12:51:08;99876.48;;;22.20;39.89
51053;BME280;37093;37.716;-122.060;2022-08-03T12:53:37;99881.01;;;21.86;39.09
51053;BME280;37093;37.716;-122.060;2022-08-03T12:56:05;99874.30;;;22.26;39.51
51053;BME280;37093;37.716;-122.060;2022-08-03T12:58:34;99869.60;;;22.46;39.07
51053;BME280;37093;37.716;-122.060;2022-08-03T13:01:04;99872.94;;;21.89;39.16
51053;BME280;37093;37.716;-122.060;2022-08-03T13:03:40;99874.30;;;22.40;38.96
51053;BME280;37093;37.716;-122.060;2022-08-03T13:07:15;99879.23;;;22.35;39.57
51053;BME280;37093;37.716;-122.060;2022-08-03T13:09:45;99883.03;;;22.32;39.57
51053;BME280;37093;37.716;-122.060;2022-08-03T13:12:15;99890.32;;;22.10;39.58
51053;BME280;37093;37.716;-122.060;2022-08-03T13:14:45;99893.06;;;22.35;39.52
51053;BME280;37093;37.716;-122.060;2022-08-03T13:17:13;99891.18;;;22.30;39.25
51053;BME280;37093;37.716;-122.060;2022-08-03T13:19:41;99894.03;;;22.28;39.79